sensor_id;sensor_type;location;lat;lon;timestamp;P1;durP1;ratioP1;P2;durP2;ratioP2
20391;SDS011;10355;53.688;10.078;2023-02-18T00:01:27;9.80;;;2.33;;
20391;SDS011;10355;53.688;10.078;2023-02-18T00:04:11;9.60;;;1.80;;
20391;SDS011;10355;53.688;10.078;2023-02-18T00:06:53;9.73;;;1.77;;
20391;SDS011;10355;53.688;10.078;2023-02-18T00:09:36;10.43;;;1.63;;
20391;SDS011;10355;53.688;10.078;2023-02-18T00:12:19;15.35;;;2.20;;
20391;SDS011;10355;53.688;10.078;2023-02-18T00:15:02;11.80;;;1.83;;
20391;SDS011;10355;53.688;10.078;2023-02-18T00:17:46;11.77;;;2.13;;
20391;SDS011;10355;53.688;10.078;2023-02-18T00:20:29;11.23;;;2.00;;
20391;SDS011;10355;53.688;10.078;2023-02-18T00:23:13;16.27;;;2.55;;
20391;SDS011;10355;53.688;10.078;2023-02-18T00:26:00;11.95;;;2.00;;
20391;SDS011;10355;53.688;10.078;2023-02-18T00:28:42;14.05;;;2.22;;
20391;SDS011;10355;53.688;10.078;2023-02-18T00:31:26;9.15;;;1.80;;
20391;SDS011;10355;53.688;10.078;2023-02-18T00:34:11;9.73;;;1.80;;
20391;SDS011;10355;53.688;10.078;2023-02-18T00:36:54;10.38;;;2.08;;
20391;SDS011;10355;53.688;10.078;2023-02-18T00:39:36;11.98;;;2.10;;
20391;SDS011;10355;53.688;10.078;2023-02-18T00:42:19;14.68;;;2.25;;
20391;SDS011;10355;53.688;10.078;2023-02-18T00:45:02;12.05;;;2.10;;
20391;SDS011;10355;53.688;10.078;2023-02-18T00:47:45;14.30;;;2.22;;
20391;SDS011;10355;53.688;10.078;2023-02-18T00:50:29;13.05;;;2.83;;
20391;SDS011;10355;53.688;10.078;2023-02-18T00:53:12;8.63;;;1.88;;
20391;SDS011;10355;53.688;10.078;2023-02-18T00:55:54;10.60;;;1.90;;
20391;SDS011;10355;53.688;10.078;2023-02-18T00:58:37;18.33;;;2.50;;
20391;SDS011;10355;53.688;10.078;2023-02-18T01:01:20;10.73;;;2.10;;
20391;SDS011;10355;53.688;10.078;2023-02-18T01:04:03;10.10;;;2.30;;
20391;SDS011;10355;53.688;10.078;2023-02-18T01:06:47;11.98;;;2.17;;
20391;SDS011;10355;53.688;10.078;2023-02-18T01:09:30;10.82;;;2.05;;
20391;SDS011;10355;53.688;10.078;2023-02-18T01:12:13;13.40;;;2.30;;
20391;SDS011;10355;53.688;10.078;2023-02-18T01:14:55;12.52;;;2.40;;
20391;SDS011;10355;53.688;10.078;2023-02-18T01:17:38;10.25;;;1.98;;
20391;SDS011;10355;53.688;10.078;2023-02-18T01:20:21;8.00;;;1.83;;
20391;SDS011;10355;53.688;10.078;2023-02-18T01:23:05;9.43;;;2.20;;
20391;SDS011;10355;53.688;10.078;2023-02-18T01:25:48;13.68;;;2.35;;
20391;SDS011;10355;53.688;10.078;2023-02-18T01:28:31;15.93;;;2.15;;
20391;SDS011;10355;53.688;10.078;2023-02-18T01:31:15;9.52;;;2.25;;
20391;SDS011;10355;53.688;10.078;2023-02-18T01:33:59;12.98;;;1.90;;
20391;SDS011;10355;53.688;10.078;2023-02-18T01:36:42;12.13;;;1.98;;
20391;SDS011;10355;53.688;10.078;2023-02-18T01:39:26;11.65;;;1.80;;
20391;SDS011;10355;53.688;10.078;2023-02-18T01:42:13;9.73;;;1.92;;
20391;SDS011;10355;53.688;10.078;2023-02-18T01:47:56;10.43;;;2.30;;
20391;SDS011;10355;53.688;10.078;2023-02-18T01:50:39;9.75;;;2.00;;
20391;SDS011;10355;53.688;10.078;2023-02-18T01:53:25;12.57;;;2.15;;
20391;SDS011;10355;53.688;10.078;2023-02-18T01:56:10;6.38;;;1.48;;
20391;SDS011;10355;53.688;10.078;2023-02-18T01:58:55;10.60;;;1.95;;
20391;SDS011;10355;53.688;10.078;2023-02-18T02:01:38;12.02;;;2.33;;
20391;SDS011;10355;53.688;10.078;2023-02-18T02:04:23;7.85;;;1.58;;
20391;SDS011;10355;53.688;10.078;2023-02-18T02:07:06;12.25;;;2.05;;
20391;SDS011;10355;53.688;10.078;2023-02-18T02:09:49;11.30;;;1.85;;
20391;SDS011;10355;53.688;10.078;2023-02-18T02:12:37;10.15;;;1.80;;
20391;SDS011;10355;53.688;10.078;2023-02-18T02:15:27;13.85;;;2.05;;
20391;SDS011;10355;53.688;10.078;2023-02-18T02:18:19;9.50;;;1.98;;
20391;SDS011;10355;53.688;10.078;2023-02-18T02:21:12;12.30;;;1.92;;
20391;SDS011;10355;53.688;10.078;2023-02-18T02:24:09;9.15;;;1.90;;
20391;SDS011;10355;53.688;10.078;2023-02-18T02:26:59;13.88;;;2.05;;
20391;SDS011;10355;53.688;10.078;2023-02-18T02:29:56;7.28;;;1.42;;
20391;SDS011;10355;53.688;10.078;2023-02-18T02:32:49;15.75;;;2.30;;
20391;SDS011;10355;53.688;10.078;2023-02-18T02:35:38;10.38;;;1.83;;
20391;SDS011;10355;53.688;10.078;2023-02-18T02:38:24;9.15;;;1.80;;
20391;SDS011;10355;53.688;10.078;2023-02-18T02:41:12;13.77;;;1.70;;
20391;SDS011;10355;53.688;10.078;2023-02-18T02:44:01;8.35;;;1.92;;
20391;SDS011;10355;53.688;10.078;2023-02-18T02:46:50;7.28;;;1.70;;
20391;SDS011;10355;53.688;10.078;2023-02-18T02:49:36;14.70;;;2.08;;
20391;SDS011;10355;53.688;10.078;2023-02-18T02:52:25;13.38;;;2.00;;
20391;SDS011;10355;53.688;10.078;2023-02-18T02:55:09;6.43;;;1.25;;
20391;SDS011;10355;53.688;10.078;2023-02-18T02:57:55;9.13;;;1.63;;
20391;SDS011;10355;53.688;10.078;2023-02-18T03:00:44;9.95;;;1.83;;
20391;SDS011;10355;53.688;10.078;2023-02-18T03:03:37;8.05;;;1.63;;
20391;SDS011;10355;53.688;10.078;2023-02-18T03:06:28;9.63;;;1.60;;
20391;SDS011;10355;53.688;10.078;2023-02-18T03:09:17;11.05;;;1.85;;
20391;SDS011;10355;53.688;10.078;2023-02-18T03:12:05;11.45;;;1.88;;
20391;SDS011;10355;53.688;10.078;2023-02-18T03:14:51;8.07;;;1.50;;
20391;SDS011;10355;53.688;10.078;2023-02-18T03:17:36;7.78;;;1.67;;
20391;SDS011;10355;53.688;10.078;2023-02-18T03:20:22;9.57;;;1.77;;
20391;SDS011;10355;53.688;10.078;2023-02-18T03:23:07;7.82;;;1.48;;
20391;SDS011;10355;53.688;10.078;2023-02-18T03:25:54;8.15;;;1.77;;
20391;SDS011;10355;53.688;10.078;2023-02-18T03:28:37;9.10;;;1.42;;
20391;SDS011;10355;53.688;10.078;2023-02-18T03:31:20;12.27;;;1.83;;
20391;SDS011;10355;53.688;10.078;2023-02-18T03:34:06;7.88;;;1.40;;
20391;SDS011;10355;53.688;10.078;2023-02-18T03:36:50;11.85;;;1.95;;
20391;SDS011;10355;53.688;10.078;2023-02-18T03:39:34;8.73;;;1.55;;
20391;SDS011;10355;53.688;10.078;2023-02-18T03:42:19;9.73;;;1.75;;
20391;SDS011;10355;53.688;10.078;2023-02-18T03:45:01;5.05;;;1.15;;
20391;SDS011;10355;53.688;10.078;2023-02-18T03:47:44;5.53;;;1.42;;
20391;SDS011;10355;53.688;10.078;2023-02-18T03:50:29;6.70;;;1.25;;
20391;SDS011;10355;53.688;10.078;2023-02-18T03:53:12;6.20;;;1.50;;
20391;SDS011;10355;53.688;10.078;2023-02-18T03:55:55;8.52;;;1.70;;
20391;SDS011;10355;53.688;10.078;2023-02-18T03:58:39;5.13;;;1.10;;
20391;SDS011;10355;53.688;10.078;2023-02-18T04:01:21;5.28;;;1.25;;
20391;SDS011;10355;53.688;10.078;2023-02-18T04:04:04;5.45;;;1.40;;
20391;SDS011;10355;53.688;10.078;2023-02-18T04:06:47;6.82;;;1.30;;
20391;SDS011;10355;53.688;10.078;2023-02-18T04:09:30;4.85;;;1.05;;
20391;SDS011;10355;53.688;10.078;2023-02-18T04:12:12;5.28;;;1.08;;
20391;SDS011;10355;53.688;10.078;2023-02-18T04:14:56;3.38;;;0.90;;
20391;SDS011;10355;53.688;10.078;2023-02-18T04:17:39;6.78;;;1.17;;
20391;SDS011;10355;53.688;10.078;2023-02-18T04:20:22;4.03;;;0.90;;
20391;SDS011;10355;53.688;10.078;2023-02-18T04:23:04;5.35;;;0.90;;
20391;SDS011;10355;53.688;10.078;2023-02-18T04:25:47;4.70;;;0.90;;
20391;SDS011;10355;53.688;10.078;2023-02-18T04:28:30;6.75;;;1.48;;
20391;SDS011;10355;53.688;10.078;2023-02-18T04:31:14;5.82;;;1.38;;
20391;SDS011;10355;53.688;10.078;2023-02-18T04:33:57;3.92;;;1.00;;
20391;SDS011;10355;53.688;10.078;2023-02-18T04:36:39;7.03;;;1.10;;
20391;SDS011;10355;53.688;10.078;2023-02-18T04:39:22;5.40;;;1.20;;
20391;SDS011;10355;53.688;10.078;2023-02-18T04:42:05;6.22;;;1.30;;
20391;SDS011;10355;53.688;10.078;2023-02-18T04:44:49;3.88;;;1.00;;
20391;SDS011;10355;53.688;10.078;2023-02-18T04:47:33;6.97;;;1.27;;
20391;SDS011;10355;53.688;10.078;2023-02-18T04:50:16;5.82;;;1.35;;
20391;SDS011;10355;53.688;10.078;2023-02-18T04:52:58;4.90;;;0.98;;
20391;SDS011;10355;53.688;10.078;2023-02-18T04:55:41;6.53;;;1.27;;
20391;SDS011;10355;53.688;10.078;2023-02-18T04:58:24;10.05;;;1.30;;
20391;SDS011;10355;53.688;10.078;2023-02-18T05:01:06;6.35;;;1.25;;
20391;SDS011;10355;53.688;10.078;2023-02-18T05:03:50;6.57;;;1.05;;
20391;SDS011;10355;53.688;10.078;2023-02-18T05:06:33;5.78;;;1.23;;
20391;SDS011;10355;53.688;10.078;2023-02-18T05:09:16;8.00;;;1.40;;
20391;SDS011;10355;53.688;10.078;2023-02-18T05:11:59;6.43;;;0.93;;
20391;SDS011;10355;53.688;10.078;2023-02-18T05:14:41;5.13;;;1.10;;
20391;SDS011;10355;53.688;10.078;2023-02-18T05:17:24;4.97;;;0.98;;
20391;SDS011;10355;53.688;10.078;2023-02-18T05:20:08;6.05;;;1.10;;
20391;SDS011;10355;53.688;10.078;2023-02-18T05:22:51;4.28;;;1.42;;
20391;SDS011;10355;53.688;10.078;2023-02-18T05:25:34;3.95;;;0.95;;
20391;SDS011;10355;53.688;10.078;2023-02-18T05:28:16;3.72;;;0.90;;
20391;SDS011;10355;53.688;10.078;2023-02-18T05:30:59;5.72;;;1.40;;
20391;SDS011;10355;53.688;10.078;2023-02-18T05:33:42;3.47;;;0.90;;
20391;SDS011;10355;53.688;10.078;2023-02-18T05:36:26;4.07;;;1.10;;
20391;SDS011;10355;53.688;10.078;2023-02-18T05:39:09;7.20;;;1.08;;
20391;SDS011;10355;53.688;10.078;2023-02-18T05:41:51;6.25;;;1.27;;
20391;SDS011;10355;53.688;10.078;2023-02-18T05:44:34;3.80;;;0.88;;
20391;SDS011;10355;53.688;10.078;2023-02-18T05:47:17;5.18;;;0.73;;
20391;SDS011;10355;53.688;10.078;2023-02-18T05:50:00;3.53;;;1.00;;
20391;SDS011;10355;53.688;10.078;2023-02-18T05:52:44;2.75;;;0.93;;
20391;SDS011;10355;53.688;10.078;2023-02-18T05:55:26;6.00;;;1.15;;
20391;SDS011;10355;53.688;10.078;2023-02-18T05:58:09;7.10;;;1.08;;
20391;SDS011;10355;53.688;10.078;2023-02-18T06:00:52;8.05;;;1.13;;
20391;SDS011;10355;53.688;10.078;2023-02-18T06:03:34;6.30;;;1.15;;
20391;SDS011;10355;53.688;10.078;2023-02-18T06:06:17;6.03;;;1.48;;
20391;SDS011;10355;53.688;10.078;2023-02-18T06:09:01;4.65;;;1.15;;
20391;SDS011;10355;53.688;10.078;2023-02-18T06:11:43;6.95;;;1.25;;
20391;SDS011;10355;53.688;10.078;2023-02-18T06:14:26;7.53;;;1.52;;
20391;SDS011;10355;53.688;10.078;2023-02-18T06:17:09;6.13;;;1.33;;
20391;SDS011;10355;53.688;10.078;2023-02-18T06:19:53;4.35;;;1.30;;
20391;SDS011;10355;53.688;10.078;2023-02-18T06:22:36;6.60;;;1.20;;
20391;SDS011;10355;53.688;10.078;2023-02-18T06:25:20;6.20;;;1.38;;
20391;SDS011;10355;53.688;10.078;2023-02-18T06:28:03;5.57;;;1.20;;
20391;SDS011;10355;53.688;10.078;2023-02-18T06:30:45;5.65;;;1.20;;
20391;SDS011;10355;53.688;10.078;2023-02-18T06:33:28;4.28;;;1.10;;
20391;SDS011;10355;53.688;10.078;2023-02-18T06:36:11;3.92;;;0.98;;
20391;SDS011;10355;53.688;10.078;2023-02-18T06:38:54;5.18;;;1.05;;
20391;SDS011;10355;53.688;10.078;2023-02-18T06:41:39;3.03;;;1.15;;
20391;SDS011;10355;53.688;10.078;2023-02-18T06:44:21;5.03;;;1.48;;
20391;SDS011;10355;53.688;10.078;2023-02-18T06:47:04;5.00;;;1.00;;
20391;SDS011;10355;53.688;10.078;2023-02-18T06:49:47;6.30;;;1.30;;
20391;SDS011;10355;53.688;10.078;2023-02-18T06:52:30;2.97;;;0.98;;
20391;SDS011;10355;53.688;10.078;2023-02-18T06:55:13;5.63;;;1.15;;
20391;SDS011;10355;53.688;10.078;2023-02-18T06:57:57;4.40;;;1.08;;
20391;SDS011;10355;53.688;10.078;2023-02-18T07:00:40;5.15;;;1.13;;
20391;SDS011;10355;53.688;10.078;2023-02-18T07:03:23;6.78;;;1.15;;
20391;SDS011;10355;53.688;10.078;2023-02-18T07:06:06;3.85;;;0.80;;
20391;SDS011;10355;53.688;10.078;2023-02-18T07:08:49;2.60;;;0.80;;
20391;SDS011;10355;53.688;10.078;2023-02-18T07:11:31;3.10;;;0.80;;
20391;SDS011;10355;53.688;10.078;2023-02-18T07:14:15;3.80;;;0.93;;
20391;SDS011;10355;53.688;10.078;2023-02-18T07:16:58;3.35;;;1.10;;
20391;SDS011;10355;53.688;10.078;2023-02-18T07:19:41;5.03;;;0.93;;
20391;SDS011;10355;53.688;10.078;2023-02-18T07:22:23;1.85;;;0.70;;
20391;SDS011;10355;53.688;10.078;2023-02-18T07:25:06;3.40;;;0.90;;
20391;SDS011;10355;53.688;10.078;2023-02-18T07:27:49;4.20;;;0.93;;
20391;SDS011;10355;53.688;10.078;2023-02-18T07:30:33;4.88;;;1.00;;
20391;SDS011;10355;53.688;10.078;2023-02-18T07:33:16;4.65;;;1.13;;
20391;SDS011;10355;53.688;10.078;2023-02-18T07:35:59;2.03;;;0.90;;
20391;SDS011;10355;53.688;10.078;2023-02-18T07:38:42;4.78;;;0.90;;
20391;SDS011;10355;53.688;10.078;2023-02-18T07:41:25;2.08;;;0.90;;
20391;SDS011;10355;53.688;10.078;2023-02-18T07:44:08;5.00;;;1.02;;
20391;SDS011;10355;53.688;10.078;2023-02-18T07:46:52;3.30;;;0.85;;
20391;SDS011;10355;53.688;10.078;2023-02-18T07:49:34;3.45;;;0.70;;
20391;SDS011;10355;53.688;10.078;2023-02-18T07:52:17;4.97;;;1.15;;
20391;SDS011;10355;53.688;10.078;2023-02-18T07:55:00;6.47;;;1.25;;
20391;SDS011;10355;53.688;10.078;2023-02-18T07:57:42;3.65;;;1.00;;
20391;SDS011;10355;53.688;10.078;2023-02-18T08:00:40;3.70;;;0.95;;
20391;SDS011;10355;53.688;10.078;2023-02-18T08:03:27;7.03;;;1.02;;
20391;SDS011;10355;53.688;10.078;2023-02-18T08:06:13;3.47;;;1.20;;
20391;SDS011;10355;53.688;10.078;2023-02-18T08:09:00;5.43;;;1.00;;
20391;SDS011;10355;53.688;10.078;2023-02-18T08:11:43;3.25;;;1.00;;
20391;SDS011;10355;53.688;10.078;2023-02-18T08:14:26;7.93;;;1.15;;
20391;SDS011;10355;53.688;10.078;2023-02-18T08:17:08;4.22;;;0.70;;
20391;SDS011;10355;53.688;10.078;2023-02-18T08:19:52;5.43;;;1.17;;
20391;SDS011;10355;53.688;10.078;2023-02-18T08:22:35;3.85;;;0.90;;
20391;SDS011;10355;53.688;10.078;2023-02-18T08:25:18;5.53;;;1.08;;
20391;SDS011;10355;53.688;10.078;2023-02-18T08:28:10;3.00;;;0.95;;
20391;SDS011;10355;53.688;10.078;2023-02-18T08:30:53;4.15;;;1.17;;
20391;SDS011;10355;53.688;10.078;2023-02-18T08:33:36;6.40;;;1.30;;
20391;SDS011;10355;53.688;10.078;2023-02-18T08:36:20;7.07;;;1.33;;
20391;SDS011;10355;53.688;10.078;2023-02-18T08:39:03;4.38;;;1.20;;
20391;SDS011;10355;53.688;10.078;2023-02-18T08:41:46;5.45;;;1.30;;
20391;SDS011;10355;53.688;10.078;2023-02-18T08:44:28;3.67;;;1.13;;
20391;SDS011;10355;53.688;10.078;2023-02-18T08:47:11;4.32;;;1.20;;
20391;SDS011;10355;53.688;10.078;2023-02-18T08:50:14;4.20;;;1.38;;
20391;SDS011;10355;53.688;10.078;2023-02-18T08:52:58;4.05;;;1.13;;
20391;SDS011;10355;53.688;10.078;2023-02-18T08:55:44;7.93;;;1.27;;
20391;SDS011;10355;53.688;10.078;2023-02-18T08:58:26;4.03;;;1.17;;
20391;SDS011;10355;53.688;10.078;2023-02-18T09:01:10;4.43;;;1.30;;
20391;SDS011;10355;53.688;10.078;2023-02-18T09:03:53;2.35;;;1.02;;
20391;SDS011;10355;53.688;10.078;2023-02-18T09:06:36;6.82;;;1.40;;
20391;SDS011;10355;53.688;10.078;2023-02-18T09:09:20;6.45;;;1.30;;
20391;SDS011;10355;53.688;10.078;2023-02-18T09:12:02;5.57;;;1.10;;
20391;SDS011;10355;53.688;10.078;2023-02-18T09:14:46;5.15;;;1.20;;
20391;SDS011;10355;53.688;10.078;2023-02-18T09:17:28;5.35;;;1.10;;
20391;SDS011;10355;53.688;10.078;2023-02-18T09:20:11;8.73;;;1.45;;
20391;SDS011;10355;53.688;10.078;2023-02-18T09:22:54;6.85;;;1.30;;
20391;SDS011;10355;53.688;10.078;2023-02-18T09:25:39;2.20;;;1.10;;
20391;SDS011;10355;53.688;10.078;2023-02-18T09:28:22;5.55;;;1.02;;
20391;SDS011;10355;53.688;10.078;2023-02-18T09:31:05;3.97;;;1.30;;
20391;SDS011;10355;53.688;10.078;2023-02-18T09:33:50;4.25;;;1.10;;
20391;SDS011;10355;53.688;10.078;2023-02-18T09:36:33;5.70;;;1.67;;
20391;SDS011;10355;53.688;10.078;2023-02-18T09:39:16;5.93;;;1.30;;
20391;SDS011;10355;53.688;10.078;2023-02-18T09:42:02;2.08;;;0.90;;
20391;SDS011;10355;53.688;10.078;2023-02-18T09:44:46;4.03;;;1.05;;
20391;SDS011;10355;53.688;10.078;2023-02-18T09:47:30;5.82;;;1.33;;
20391;SDS011;10355;53.688;10.078;2023-02-18T09:50:17;4.13;;;1.02;;
20391;SDS011;10355;53.688;10.078;2023-02-18T09:53:02;4.32;;;1.40;;
20391;SDS011;10355;53.688;10.078;2023-02-18T09:55:46;4.60;;;1.52;;
20391;SDS011;10355;53.688;10.078;2023-02-18T09:58:31;3.90;;;1.85;;
20391;SDS011;10355;53.688;10.078;2023-02-18T10:01:16;5.03;;;1.48;;
20391;SDS011;10355;53.688;10.078;2023-02-18T10:04:03;5.10;;;1.40;;
20391;SDS011;10355;53.688;10.078;2023-02-18T10:06:46;4.18;;;1.30;;
20391;SDS011;10355;53.688;10.078;2023-02-18T10:09:31;2.80;;;1.25;;
20391;SDS011;10355;53.688;10.078;2023-02-18T10:12:15;3.20;;;1.27;;
20391;SDS011;10355;53.688;10.078;2023-02-18T10:15:01;3.70;;;1.80;;
20391;SDS011;10355;53.688;10.078;2023-02-18T10:17:44;3.58;;;1.60;;
20391;SDS011;10355;53.688;10.078;2023-02-18T10:20:28;3.72;;;1.95;;
20391;SDS011;10355;53.688;10.078;2023-02-18T10:23:11;5.45;;;2.03;;
20391;SDS011;10355;53.688;10.078;2023-02-18T10:25:55;3.85;;;2.00;;
20391;SDS011;10355;53.688;10.078;2023-02-18T10:28:39;3.63;;;2.03;;
20391;SDS011;10355;53.688;10.078;2023-02-18T10:31:24;4.40;;;1.83;;
20391;SDS011;10355;53.688;10.078;2023-02-18T10:34:11;3.03;;;2.00;;
20391;SDS011;10355;53.688;10.078;2023-02-18T10:36:57;2.78;;;2.10;;
20391;SDS011;10355;53.688;10.078;2023-02-18T10:39:47;5.03;;;2.60;;
20391;SDS011;10355;53.688;10.078;2023-02-18T10:42:37;3.55;;;1.88;;
20391;SDS011;10355;53.688;10.078;2023-02-18T10:45:25;3.30;;;2.00;;
20391;SDS011;10355;53.688;10.078;2023-02-18T10:48:16;4.40;;;2.10;;
20391;SDS011;10355;53.688;10.078;2023-02-18T10:51:05;2.00;;;1.75;;
20391;SDS011;10355;53.688;10.078;2023-02-18T10:53:54;5.20;;;2.08;;
20391;SDS011;10355;53.688;10.078;2023-02-18T10:56:38;3.30;;;2.22;;
20391;SDS011;10355;53.688;10.078;2023-02-18T10:59:21;3.08;;;2.25;;
20391;SDS011;10355;53.688;10.078;2023-02-18T11:02:11;2.70;;;2.10;;
20391;SDS011;10355;53.688;10.078;2023-02-18T11:04:57;3.42;;;2.00;;
20391;SDS011;10355;53.688;10.078;2023-02-18T11:07:43;3.70;;;2.17;;
20391;SDS011;10355;53.688;10.078;2023-02-18T11:10:28;4.07;;;2.10;;
20391;SDS011;10355;53.688;10.078;2023-02-18T11:13:12;3.25;;;2.40;;
20391;SDS011;10355;53.688;10.078;2023-02-18T11:15:57;4.45;;;2.13;;
20391;SDS011;10355;53.688;10.078;2023-02-18T11:18:41;3.80;;;2.60;;
20391;SDS011;10355;53.688;10.078;2023-02-18T11:21:30;3.42;;;2.33;;
20391;SDS011;10355;53.688;10.078;2023-02-18T11:24:15;4.53;;;2.78;;
20391;SDS011;10355;53.688;10.078;2023-02-18T11:26:57;2.90;;;2.50;;
20391;SDS011;10355;53.688;10.078;2023-02-18T11:29:40;4.40;;;2.80;;
20391;SDS011;10355;53.688;10.078;2023-02-18T11:32:25;4.10;;;2.35;;
20391;SDS011;10355;53.688;10.078;2023-02-18T11:35:15;3.40;;;2.60;;
20391;SDS011;10355;53.688;10.078;2023-02-18T11:38:01;3.13;;;2.47;;
20391;SDS011;10355;53.688;10.078;2023-02-18T11:40:44;3.30;;;2.47;;
20391;SDS011;10355;53.688;10.078;2023-02-18T11:43:35;4.78;;;2.70;;
20391;SDS011;10355;53.688;10.078;2023-02-18T11:46:18;2.70;;;2.08;;
20391;SDS011;10355;53.688;10.078;2023-02-18T11:49:17;3.38;;;2.20;;
20391;SDS011;10355;53.688;10.078;2023-02-18T11:52:03;3.17;;;2.30;;
20391;SDS011;10355;53.688;10.078;2023-02-18T11:54:59;3.03;;;2.30;;
20391;SDS011;10355;53.688;10.078;2023-02-18T11:57:44;2.70;;;2.33;;
20391;SDS011;10355;53.688;10.078;2023-02-18T12:00:34;2.60;;;2.10;;
20391;SDS011;10355;53.688;10.078;2023-02-18T12:03:20;3.72;;;2.63;;
20391;SDS011;10355;53.688;10.078;2023-02-18T12:06:10;3.20;;;2.30;;
20391;SDS011;10355;53.688;10.078;2023-02-18T12:08:55;3.10;;;2.60;;
20391;SDS011;10355;53.688;10.078;2023-02-18T12:11:41;2.65;;;2.03;;
20391;SDS011;10355;53.688;10.078;2023-02-18T12:14:24;2.30;;;2.10;;
20391;SDS011;10355;53.688;10.078;2023-02-18T12:17:19;2.53;;;1.90;;
20391;SDS011;10355;53.688;10.078;2023-02-18T12:20:11;1.83;;;1.30;;
20391;SDS011;10355;53.688;10.078;2023-02-18T12:23:00;1.25;;;1.10;;
20391;SDS011;10355;53.688;10.078;2023-02-18T12:25:46;1.00;;;0.90;;
20391;SDS011;10355;53.688;10.078;2023-02-18T12:28:38;1.23;;;0.88;;
20391;SDS011;10355;53.688;10.078;2023-02-18T12:31:27;0.60;;;0.60;;
20391;SDS011;10355;53.688;10.078;2023-02-18T12:34:16;0.73;;;0.60;;
20391;SDS011;10355;53.688;10.078;2023-02-18T12:37:06;2.92;;;0.70;;
20391;SDS011;10355;53.688;10.078;2023-02-18T12:39:57;4.38;;;0.90;;
20391;SDS011;10355;53.688;10.078;2023-02-18T12:42:46;6.15;;;1.15;;
20391;SDS011;10355;53.688;10.078;2023-02-18T12:45:39;1.80;;;0.98;;
20391;SDS011;10355;53.688;10.078;2023-02-18T12:48:38;7.47;;;1.23;;
20391;SDS011;10355;53.688;10.078;2023-02-18T12:51:27;4.13;;;1.00;;
20391;SDS011;10355;53.688;10.078;2023-02-18T12:57:17;6.60;;;1.25;;
20391;SDS011;10355;53.688;10.078;2023-02-18T13:03:13;3.28;;;0.90;;
20391;SDS011;10355;53.688;10.078;2023-02-18T13:06:02;7.75;;;1.10;;
20391;SDS011;10355;53.688;10.078;2023-02-18T13:08:52;5.28;;;1.25;;
20391;SDS011;10355;53.688;10.078;2023-02-18T13:11:40;3.42;;;0.93;;
20391;SDS011;10355;53.688;10.078;2023-02-18T13:14:26;3.50;;;0.90;;
20391;SDS011;10355;53.688;10.078;2023-02-18T13:17:10;4.15;;;1.20;;
20391;SDS011;10355;53.688;10.078;2023-02-18T13:19:57;6.50;;;1.20;;
20391;SDS011;10355;53.688;10.078;2023-02-18T13:22:41;6.32;;;1.02;;
20391;SDS011;10355;53.688;10.078;2023-02-18T13:25:23;3.78;;;1.08;;
20391;SDS011;10355;53.688;10.078;2023-02-18T13:28:07;1.38;;;0.80;;
20391;SDS011;10355;53.688;10.078;2023-02-18T13:31:00;1.88;;;1.02;;
20391;SDS011;10355;53.688;10.078;2023-02-18T13:33:46;0.60;;;0.60;;
20391;SDS011;10355;53.688;10.078;2023-02-18T13:36:35;2.42;;;0.85;;
20391;SDS011;10355;53.688;10.078;2023-02-18T13:39:20;0.50;;;0.50;;
20391;SDS011;10355;53.688;10.078;2023-02-18T13:48:20;1.02;;;0.68;;
20391;SDS011;10355;53.688;10.078;2023-02-18T13:51:04;0.52;;;0.50;;
20391;SDS011;10355;53.688;10.078;2023-02-18T13:53:49;0.63;;;0.40;;
20391;SDS011;10355;53.688;10.078;2023-02-18T13:56:33;0.52;;;0.52;;
20391;SDS011;10355;53.688;10.078;2023-02-18T13:59:17;0.40;;;0.40;;
20391;SDS011;10355;53.688;10.078;2023-02-18T14:02:07;1.48;;;0.60;;
20391;SDS011;10355;53.688;10.078;2023-02-18T14:04:50;0.85;;;0.60;;
20391;SDS011;10355;53.688;10.078;2023-02-18T14:07:43;1.15;;;0.60;;
20391;SDS011;10355;53.688;10.078;2023-02-18T14:10:29;0.70;;;0.70;;
20391;SDS011;10355;53.688;10.078;2023-02-18T14:13:22;0.93;;;0.80;;
20391;SDS011;10355;53.688;10.078;2023-02-18T14:16:06;0.60;;;0.60;;
20391;SDS011;10355;53.688;10.078;2023-02-18T14:18:59;0.57;;;0.57;;
20391;SDS011;10355;53.688;10.078;2023-02-18T14:21:42;0.52;;;0.50;;
20391;SDS011;10355;53.688;10.078;2023-02-18T14:27:24;0.50;;;0.50;;
20391;SDS011;10355;53.688;10.078;2023-02-18T14:30:15;0.43;;;0.43;;
20391;SDS011;10355;53.688;10.078;2023-02-18T14:32:59;1.20;;;0.75;;
20391;SDS011;10355;53.688;10.078;2023-02-18T14:35:42;0.82;;;0.50;;
20391;SDS011;10355;53.688;10.078;2023-02-18T14:38:32;0.35;;;0.35;;
20391;SDS011;10355;53.688;10.078;2023-02-18T14:41:31;0.30;;;0.30;;
20391;SDS011;10355;53.688;10.078;2023-02-18T14:44:23;0.68;;;0.35;;
20391;SDS011;10355;53.688;10.078;2023-02-18T14:47:16;0.43;;;0.40;;
20391;SDS011;10355;53.688;10.078;2023-02-18T14:50:09;0.68;;;0.40;;
20391;SDS011;10355;53.688;10.078;2023-02-18T14:52:53;0.40;;;0.32;;
20391;SDS011;10355;53.688;10.078;2023-02-18T14:55:40;0.38;;;0.38;;
20391;SDS011;10355;53.688;10.078;2023-02-18T14:58:27;0.45;;;0.40;;
20391;SDS011;10355;53.688;10.078;2023-02-18T15:01:16;0.50;;;0.40;;
20391;SDS011;10355;53.688;10.078;2023-02-18T15:04:00;0.65;;;0.55;;
20391;SDS011;10355;53.688;10.078;2023-02-18T15:06:43;0.60;;;0.60;;
20391;SDS011;10355;53.688;10.078;2023-02-18T15:09:26;0.80;;;0.45;;
20391;SDS011;10355;53.688;10.078;2023-02-18T15:12:09;0.50;;;0.50;;
20391;SDS011;10355;53.688;10.078;2023-02-18T15:14:52;0.50;;;0.40;;
20391;SDS011;10355;53.688;10.078;2023-02-18T15:17:37;1.02;;;0.50;;
20391;SDS011;10355;53.688;10.078;2023-02-18T15:20:25;0.50;;;0.30;;
20391;SDS011;10355;53.688;10.078;2023-02-18T15:23:09;0.40;;;0.40;;
20391;SDS011;10355;53.688;10.078;2023-02-18T15:25:55;0.30;;;0.30;;
20391;SDS011;10355;53.688;10.078;2023-02-18T15:28:40;0.30;;;0.30;;
20391;SDS011;10355;53.688;10.078;2023-02-18T15:31:27;1.75;;;0.47;;
20391;SDS011;10355;53.688;10.078;2023-02-18T15:37:15;0.40;;;0.40;;
20391;SDS011;10355;53.688;10.078;2023-02-18T15:39:58;0.30;;;0.30;;
20391;SDS011;10355;53.688;10.078;2023-02-18T15:42:41;1.52;;;0.40;;
20391;SDS011;10355;53.688;10.078;2023-02-18T15:45:24;0.50;;;0.43;;
20391;SDS011;10355;53.688;10.078;2023-02-18T15:48:12;0.35;;;0.35;;
20391;SDS011;10355;53.688;10.078;2023-02-18T15:50:59;0.50;;;0.40;;
20391;SDS011;10355;53.688;10.078;2023-02-18T15:53:58;0.40;;;0.40;;
20391;SDS011;10355;53.688;10.078;2023-02-18T15:56:43;0.50;;;0.50;;
20391;SDS011;10355;53.688;10.078;2023-02-18T15:59:27;0.73;;;0.50;;
20391;SDS011;10355;53.688;10.078;2023-02-18T16:02:13;0.75;;;0.47;;
20391;SDS011;10355;53.688;10.078;2023-02-18T16:04:59;1.58;;;0.40;;
20391;SDS011;10355;53.688;10.078;2023-02-18T16:07:50;0.30;;;0.30;;
20391;SDS011;10355;53.688;10.078;2023-02-18T16:10:51;0.40;;;0.40;;
20391;SDS011;10355;53.688;10.078;2023-02-18T16:13:36;0.60;;;0.60;;
20391;SDS011;10355;53.688;10.078;2023-02-18T16:16:20;1.58;;;0.90;;
20391;SDS011;10355;53.688;10.078;2023-02-18T16:19:03;0.90;;;0.90;;
20391;SDS011;10355;53.688;10.078;2023-02-18T16:21:46;0.65;;;0.65;;
20391;SDS011;10355;53.688;10.078;2023-02-18T16:24:29;1.20;;;0.80;;
20391;SDS011;10355;53.688;10.078;2023-02-18T16:27:14;0.90;;;0.90;;
20391;SDS011;10355;53.688;10.078;2023-02-18T16:29:58;3.40;;;1.20;;
20391;SDS011;10355;53.688;10.078;2023-02-18T16:32:42;0.95;;;0.93;;
20391;SDS011;10355;53.688;10.078;2023-02-18T16:35:26;1.00;;;1.00;;
20391;SDS011;10355;53.688;10.078;2023-02-18T16:38:14;1.45;;;1.10;;
20391;SDS011;10355;53.688;10.078;2023-02-18T16:40:57;1.13;;;0.98;;